createdAt,value
2023-05-19T00:00:02.333Z,11.22
2023-05-19T00:01:02.350Z,11.22
2023-05-19T00:02:02.391Z,11.22
2023-05-19T00:03:02.513Z,11.22
2023-05-19T00:04:02.454Z,11.17
2023-05-19T00:05:02.413Z,11.15
2023-05-19T00:06:02.456Z,11.15
2023-05-19T00:07:02.449Z,11.15
2023-05-19T00:08:02.448Z,11.16
2023-05-19T00:09:02.468Z,11.13
2023-05-19T00:10:02.466Z,11.11
2023-05-19T00:11:02.489Z,11.11
2023-05-19T00:12:02.531Z,11.1
2023-05-19T00:13:02.542Z,11.1
2023-05-19T00:14:02.585Z,11.08
2023-05-19T00:15:02.609Z,11.07
2023-05-19T00:16:02.693Z,11.08
2023-05-19T00:17:02.646Z,11.08
2023-05-19T00:18:02.715Z,11.07
2023-05-19T00:19:02.726Z,11.06
2023-05-19T00:20:02.704Z,11.06
2023-05-19T00:21:02.738Z,11.06
2023-05-19T00:22:02.781Z,11.08
2023-05-19T00:23:02.784Z,11.08
2023-05-19T00:24:02.801Z,11.08
2023-05-19T00:25:02.826Z,11.08
2023-05-19T00:26:02.850Z,11.08
2023-05-19T00:27:02.880Z,11.08
2023-05-19T00:28:02.891Z,11.02
2023-05-19T00:29:02.903Z,11.02
2023-05-19T00:30:02.938Z,11
2023-05-19T00:31:02.935Z,11
2023-05-19T00:32:02.989Z,10.94
2023-05-19T00:33:02.999Z,10.94
2023-05-19T00:34:02.980Z,10.94
2023-05-19T00:35:03.002Z,10.94
2023-05-19T00:36:02.989Z,10.94
2023-05-19T00:37:03.010Z,10.94
2023-05-19T00:38:03.027Z,10.94
2023-05-19T00:39:03.092Z,10.92
2023-05-19T00:40:03.080Z,10.92
2023-05-19T00:41:02.172Z,10.9
2023-05-19T00:42:02.107Z,10.82
2023-05-19T00:43:02.141Z,10.82
2023-05-19T00:44:02.223Z,10.79
2023-05-19T00:45:02.179Z,10.79
2023-05-19T00:46:02.269Z,10.79
2023-05-19T00:47:02.644Z,10.79
2023-05-19T00:48:02.393Z,10.78
2023-05-19T00:49:02.268Z,10.76
2023-05-19T00:50:02.292Z,10.76
2023-05-19T00:51:02.561Z,10.78
2023-05-19T00:52:02.337Z,10.76
2023-05-19T00:53:02.365Z,10.74
2023-05-19T00:54:02.395Z,10.71
2023-05-19T00:55:02.369Z,10.7
2023-05-19T00:56:02.446Z,10.66
2023-05-19T00:57:02.378Z,10.66
2023-05-19T00:58:02.486Z,10.66
2023-05-19T00:59:02.399Z,10.68
2023-05-19T01:00:02.498Z,10.66
2023-05-19T01:01:02.474Z,10.66
2023-05-19T01:02:02.478Z,10.66
2023-05-19T01:03:02.674Z,10.66
2023-05-19T01:04:02.720Z,10.62
2023-05-19T01:05:02.566Z,10.62
2023-05-19T01:06:02.592Z,10.62
2023-05-19T01:07:02.624Z,10.58
2023-05-19T01:08:02.632Z,10.54
2023-05-19T01:09:02.653Z,10.54
2023-05-19T01:10:02.683Z,10.54
2023-05-19T01:11:02.705Z,10.52
2023-05-19T01:12:02.733Z,10.52
2023-05-19T01:13:02.735Z,10.46
2023-05-19T01:14:02.763Z,10.46
2023-05-19T01:15:02.806Z,10.46
2023-05-19T01:16:02.909Z,10.46
2023-05-19T01:17:02.849Z,10.46
2023-05-19T01:18:02.890Z,10.41
2023-05-19T01:19:03.053Z,10.38
2023-05-19T01:20:02.892Z,10.38
2023-05-19T01:21:02.917Z,10.35
2023-05-19T01:22:02.924Z,10.37
2023-05-19T01:23:02.941Z,10.32
2023-05-19T01:24:02.941Z,10.32
2023-05-19T01:25:02.955Z,10.34
2023-05-19T01:26:02.956Z,10.28
2023-05-19T01:27:02.985Z,10.21
2023-05-19T01:28:03.019Z,10.21
2023-05-19T01:29:03.049Z,10.21
2023-05-19T01:30:03.080Z,10.21
2023-05-19T01:31:02.098Z,10.21
2023-05-19T01:32:02.217Z,10.21
2023-05-19T01:33:02.311Z,10.21
2023-05-19T01:34:02.181Z,10.16
2023-05-19T01:35:02.203Z,10.13
2023-05-19T01:36:02.262Z,10.13
2023-05-19T01:37:02.273Z,10.07
2023-05-19T01:38:02.280Z,10.07
2023-05-19T01:39:02.304Z,10.05
2023-05-19T01:40:02.317Z,10.05
2023-05-19T01:41:02.339Z,9.992
2023-05-19T01:42:02.356Z,9.992
2023-05-19T01:43:02.401Z,9.968
2023-05-19T01:44:02.414Z,9.968
2023-05-19T01:45:02.439Z,10.01
2023-05-19T01:46:02.495Z,9.889
2023-05-19T01:47:02.483Z,9.889
2023-05-19T01:48:02.538Z,9.865
2023-05-19T01:49:02.530Z,9.865
2023-05-19T01:50:02.552Z,9.865
2023-05-19T01:51:02.564Z,9.804
2023-05-19T01:52:02.575Z,9.749
2023-05-19T01:53:02.601Z,9.749
2023-05-19T01:54:02.617Z,9.633
2023-05-19T01:55:02.619Z,9.633
2023-05-19T01:56:02.625Z,9.609
2023-05-19T01:57:02.640Z,9.609
2023-05-19T01:58:02.654Z,9.529
2023-05-19T01:59:02.694Z,9.474
2023-05-19T02:00:02.729Z,9.468
2023-05-19T02:01:02.752Z,9.431
2023-05-19T02:02:02.749Z,9.389
2023-05-19T02:03:02.806Z,9.407
2023-05-19T02:04:02.825Z,9.315
2023-05-19T02:05:02.813Z,9.315
2023-05-19T02:06:02.837Z,9.315
2023-05-19T02:07:02.876Z,9.333
2023-05-19T02:08:02.889Z,9.31
2023-05-19T02:09:02.917Z,9.254
2023-05-19T02:10:02.917Z,9.254
2023-05-19T02:11:02.948Z,9.254
2023-05-19T02:12:02.962Z,9.175
2023-05-19T02:13:02.979Z,9.119
2023-05-19T02:14:03.005Z,9.119
2023-05-19T02:15:03.009Z,9.119
2023-05-19T02:16:03.128Z,9.119
2023-05-19T02:17:03.023Z,9.095
2023-05-19T02:18:03.149Z,9.04
2023-05-19T02:19:03.131Z,8.997
2023-05-19T02:20:03.050Z,8.979
2023-05-19T02:21:03.070Z,8.979
2023-05-19T02:22:02.102Z,8.992
2023-05-19T02:23:02.167Z,8.992
2023-05-19T02:24:02.164Z,8.992
2023-05-19T02:25:02.180Z,8.937
2023-05-19T02:26:02.218Z,8.937
2023-05-19T02:27:02.246Z,8.857
2023-05-19T02:28:02.266Z,8.857
2023-05-19T02:29:02.297Z,8.857
2023-05-19T02:30:02.314Z,8.833
2023-05-19T02:31:02.339Z,8.833
2023-05-19T02:32:02.438Z,8.778
2023-05-19T02:33:02.417Z,8.722
2023-05-19T02:34:02.425Z,8.722
2023-05-19T02:35:02.425Z,8.722
2023-05-19T02:36:02.447Z,8.722
2023-05-19T02:37:02.470Z,8.722
2023-05-19T02:38:02.496Z,8.698
2023-05-19T02:39:02.512Z,8.698
2023-05-19T02:40:02.543Z,8.674
2023-05-19T02:41:02.573Z,8.674
2023-05-19T02:42:02.560Z,8.582
2023-05-19T02:43:02.574Z,8.558
2023-05-19T02:44:02.598Z,8.558
2023-05-19T02:45:02.616Z,8.577
2023-05-19T02:46:02.638Z,8.577
2023-05-19T02:47:02.627Z,8.558
2023-05-19T02:48:02.684Z,8.577
2023-05-19T02:49:02.636Z,8.497
2023-05-19T02:50:02.648Z,8.479
2023-05-19T02:51:02.672Z,8.479
2023-05-19T02:52:02.724Z,8.479
2023-05-19T02:53:02.724Z,8.479
2023-05-19T02:54:02.741Z,8.479
2023-05-19T02:55:02.783Z,8.479
2023-05-19T02:56:02.803Z,8.479
2023-05-19T02:57:02.862Z,8.399
2023-05-19T02:58:02.891Z,8.399
2023-05-19T02:59:02.892Z,8.399
2023-05-19T03:00:02.903Z,8.399
2023-05-19T03:01:02.927Z,8.399
2023-05-19T03:02:03.037Z,8.344
2023-05-19T03:03:03.167Z,8.344
2023-05-19T03:04:03.057Z,8.344
2023-05-19T03:05:03.039Z,8.344
2023-05-19T03:06:03.062Z,8.339
2023-05-19T03:07:03.080Z,8.344
2023-05-19T03:08:02.122Z,8.326
2023-05-19T03:09:02.126Z,8.307
2023-05-19T03:10:02.137Z,8.289
2023-05-19T03:11:02.156Z,8.312
2023-05-19T03:12:02.163Z,8.312
2023-05-19T03:13:02.178Z,8.331
2023-05-19T03:14:02.184Z,8.336
2023-05-19T03:15:02.209Z,8.336
2023-05-19T03:16:02.217Z,8.355
2023-05-19T03:17:02.274Z,8.378
2023-05-19T03:18:02.314Z,8.36
2023-05-19T03:19:02.301Z,8.384
2023-05-19T03:20:02.277Z,8.402
2023-05-19T03:21:02.306Z,8.402
2023-05-19T03:22:02.326Z,8.384
2023-05-19T03:23:02.364Z,8.402
2023-05-19T03:24:02.412Z,8.426
2023-05-19T03:25:02.425Z,8.408
2023-05-19T03:26:02.440Z,8.426
2023-05-19T03:27:02.499Z,8.426
2023-05-19T03:28:02.500Z,8.444
2023-05-19T03:29:02.514Z,8.481
2023-05-19T03:30:04.944Z,8.481
2023-05-19T03:31:02.595Z,8.5
2023-05-19T03:32:02.648Z,8.5
2023-05-19T03:33:02.713Z,8.505
2023-05-19T03:34:02.628Z,8.505
2023-05-19T03:35:02.646Z,8.505
2023-05-19T03:36:02.693Z,8.524
2023-05-19T03:37:02.680Z,8.548
2023-05-19T03:38:02.683Z,8.548
2023-05-19T03:39:02.704Z,8.548
2023-05-19T03:40:02.729Z,8.548
2023-05-19T03:41:02.725Z,8.529
2023-05-19T03:42:02.742Z,8.566
2023-05-19T03:43:02.752Z,8.566
2023-05-19T03:44:02.763Z,8.585
2023-05-19T03:45:02.776Z,8.585
2023-05-19T03:46:02.868Z,8.59
2023-05-19T03:47:02.841Z,8.59
2023-05-19T03:48:02.919Z,8.571
2023-05-19T03:49:02.890Z,8.614
2023-05-19T03:50:02.921Z,8.638
2023-05-19T03:51:02.938Z,8.638
2023-05-19T03:52:02.956Z,8.662
2023-05-19T03:53:02.985Z,8.68
2023-05-19T03:54:02.998Z,8.661
2023-05-19T03:55:03.026Z,8.722
2023-05-19T03:56:03.042Z,8.722
2023-05-19T03:57:03.059Z,8.722
2023-05-19T03:58:03.070Z,8.722
2023-05-19T03:59:02.091Z,8.722
2023-05-19T04:00:02.110Z,8.727
2023-05-19T04:01:02.133Z,8.746
2023-05-19T04:02:02.172Z,8.746
2023-05-19T04:03:02.216Z,8.746
2023-05-19T04:04:02.223Z,8.764
2023-05-19T04:05:02.160Z,8.825
2023-05-19T04:06:02.180Z,8.825
2023-05-19T04:07:02.187Z,8.825
2023-05-19T04:08:02.208Z,8.807
2023-05-19T04:09:02.239Z,8.831
2023-05-19T04:10:02.265Z,8.849
2023-05-19T04:11:02.294Z,8.855
2023-05-19T04:12:02.329Z,8.855
2023-05-19T04:13:02.347Z,8.855
2023-05-19T04:14:02.367Z,8.897
2023-05-19T04:15:02.388Z,8.971
2023-05-19T04:16:02.474Z,8.989
2023-05-19T04:17:02.429Z,8.995
2023-05-19T04:18:02.509Z,9.013
2023-05-19T04:19:02.522Z,9.018
2023-05-19T04:20:02.524Z,9
2023-05-19T04:22:02.553Z,9.024
2023-05-19T04:23:02.537Z,9.085
2023-05-19T04:24:02.560Z,9.103
2023-05-19T04:25:02.578Z,9.127
2023-05-19T04:26:02.613Z,9.169
2023-05-19T04:27:02.676Z,9.151
2023-05-19T04:28:02.610Z,9.151
2023-05-19T04:29:02.614Z,9.174
2023-05-19T04:30:02.633Z,9.198
2023-05-19T04:31:02.661Z,9.291
2023-05-19T04:32:02.645Z,9.333
2023-05-19T04:33:02.691Z,9.357
2023-05-19T04:34:02.752Z,9.357
2023-05-19T04:35:02.718Z,9.381
2023-05-19T04:36:02.741Z,9.442
2023-05-19T04:37:02.780Z,9.466
2023-05-19T04:38:02.790Z,9.489
2023-05-19T04:39:02.826Z,9.489
2023-05-19T04:40:02.849Z,9.532
2023-05-19T04:41:02.873Z,9.574
2023-05-19T04:42:02.895Z,9.63
2023-05-19T04:43:02.925Z,9.653
2023-05-19T04:44:02.947Z,9.677
2023-05-19T04:45:02.972Z,9.738
2023-05-19T04:46:02.992Z,9.738
2023-05-19T04:47:03.045Z,9.781
2023-05-19T04:48:03.058Z,9.823
2023-05-19T04:49:03.058Z,9.897
2023-05-19T04:50:03.083Z,9.902
2023-05-19T04:51:02.102Z,9.926
2023-05-19T04:52:02.115Z,9.95
2023-05-19T04:53:03.633Z,10.01
2023-05-19T04:54:02.414Z,10.03
2023-05-19T04:55:05.431Z,10.15
2023-05-19T04:57:02.248Z,10.22
2023-05-19T04:58:02.214Z,10.24
2023-05-19T04:59:02.237Z,10.3
2023-05-19T05:00:02.229Z,10.28
2023-05-19T05:01:02.235Z,10.4
2023-05-19T05:02:02.308Z,10.44
2023-05-19T05:03:02.341Z,10.5
2023-05-19T05:04:02.701Z,10.55
2023-05-19T05:05:02.343Z,10.58
2023-05-19T05:06:02.362Z,10.61
2023-05-19T05:07:02.368Z,10.64
2023-05-19T05:08:02.401Z,10.72
2023-05-19T05:09:02.421Z,10.76
2023-05-19T05:10:02.443Z,10.83
2023-05-19T05:11:02.463Z,10.86
2023-05-19T05:12:02.485Z,10.89
2023-05-19T05:13:02.511Z,10.95
2023-05-19T05:14:02.535Z,10.99
2023-05-19T05:15:02.548Z,10.99
2023-05-19T05:16:02.599Z,11.07
2023-05-19T05:17:02.585Z,11.09
2023-05-19T05:18:02.651Z,11.17
2023-05-19T05:19:02.668Z,11.19
2023-05-19T05:20:02.633Z,11.21
2023-05-19T05:21:02.646Z,11.33
2023-05-19T05:22:02.650Z,11.39
2023-05-19T05:23:02.651Z,11.39
2023-05-19T05:24:02.664Z,11.41
2023-05-19T05:25:02.690Z,11.49
2023-05-19T05:26:02.711Z,11.51
2023-05-19T05:27:02.741Z,11.59
2023-05-19T05:28:02.775Z,11.59
2023-05-19T05:29:02.804Z,11.61
2023-05-19T05:30:02.833Z,11.71
2023-05-19T05:31:02.852Z,11.75
2023-05-19T05:32:02.910Z,11.79
2023-05-19T05:33:03.077Z,11.79
2023-05-19T05:34:02.932Z,11.85
2023-05-19T05:35:02.963Z,11.89
2023-05-19T05:36:02.981Z,11.97
2023-05-19T05:37:03.007Z,11.99
2023-05-19T05:38:03.035Z,12.01
2023-05-19T05:39:03.054Z,12.05
2023-05-19T05:40:03.089Z,12.12
2023-05-19T05:41:02.091Z,12.14
2023-05-19T05:42:02.134Z,12.14
2023-05-19T05:43:02.153Z,12.2
2023-05-19T05:44:02.176Z,12.29
2023-05-19T05:45:02.174Z,12.31
2023-05-19T05:46:02.233Z,12.33
2023-05-19T05:47:02.206Z,12.35
2023-05-19T05:48:02.255Z,12.39
2023-05-19T05:49:02.223Z,12.43
2023-05-19T05:50:02.230Z,12.47
2023-05-19T05:51:02.239Z,12.48
2023-05-19T05:52:06.341Z,12.48
2023-05-19T05:53:02.283Z,12.5
2023-05-19T05:54:02.311Z,12.55
2023-05-19T05:55:02.350Z,12.63
2023-05-19T05:56:02.387Z,12.7
2023-05-19T05:57:02.405Z,12.78
2023-05-19T05:58:02.445Z,12.85
2023-05-19T05:59:02.448Z,12.92
2023-05-19T06:00:02.525Z,13.04
2023-05-19T06:01:02.497Z,13.19
2023-05-19T06:02:02.586Z,13.28
2023-05-19T06:03:02.698Z,13.38
2023-05-19T06:04:02.593Z,13.45
2023-05-19T06:05:02.664Z,13.58
2023-05-19T06:06:02.685Z,13.68
2023-05-19T06:07:02.650Z,13.77
2023-05-19T06:08:02.665Z,13.93
2023-05-19T06:09:02.694Z,14.05
2023-05-19T06:10:02.722Z,14.14
2023-05-19T06:11:02.725Z,14.25
2023-05-19T06:12:02.763Z,14.27
2023-05-19T06:13:02.765Z,14.33
2023-05-19T06:14:02.799Z,14.37
2023-05-19T06:15:02.831Z,14.41
2023-05-19T06:16:02.848Z,14.42
2023-05-19T06:17:02.825Z,14.51
2023-05-19T06:18:02.884Z,14.67
2023-05-19T06:19:02.898Z,14.81
2023-05-19T06:20:02.861Z,15.07
2023-05-19T06:21:02.873Z,15.25
2023-05-19T06:22:02.873Z,15.37
2023-05-19T06:23:02.907Z,15.52
2023-05-19T06:24:02.911Z,15.72
2023-05-19T06:25:02.944Z,15.82
2023-05-19T06:26:02.955Z,15.91
2023-05-19T06:27:02.984Z,16.08
2023-05-19T06:28:03.017Z,16.18
2023-05-19T06:29:03.042Z,16.24
2023-05-19T06:30:03.079Z,16.29
2023-05-19T06:31:03.099Z,16.22
2023-05-19T06:32:02.117Z,16.1
2023-05-19T06:33:02.185Z,16
2023-05-19T06:34:02.168Z,15.93
2023-05-19T06:35:02.176Z,15.92
2023-05-19T06:36:02.211Z,15.98
2023-05-19T06:37:02.282Z,16.01
2023-05-19T06:38:02.254Z,16.03
2023-05-19T06:39:02.881Z,16.14
2023-05-19T06:40:02.311Z,16.18
2023-05-19T06:41:02.289Z,16.21
2023-05-19T06:42:02.299Z,16.16
2023-05-19T06:43:02.320Z,16.14
2023-05-19T06:44:02.315Z,16.18
2023-05-19T06:45:02.361Z,16.27
2023-05-19T06:46:02.336Z,16.34
2023-05-19T06:47:02.405Z,16.45
2023-05-19T06:48:02.408Z,16.54
2023-05-19T06:49:02.421Z,16.61
2023-05-19T06:50:02.425Z,16.74
2023-05-19T06:51:02.469Z,16.76
2023-05-19T06:52:02.472Z,16.87
2023-05-19T06:53:02.494Z,16.96
2023-05-19T06:54:02.540Z,17.05
2023-05-19T06:55:02.549Z,17.17
2023-05-19T06:56:02.583Z,17.31
2023-05-19T06:57:02.583Z,17.48
2023-05-19T06:58:02.617Z,17.65
2023-05-19T06:59:02.630Z,17.77
2023-05-19T07:00:02.646Z,17.92
2023-05-19T07:01:02.671Z,18.05
2023-05-19T07:02:02.705Z,18.13
2023-05-19T07:03:02.767Z,18.2
2023-05-19T07:04:02.736Z,18.26
2023-05-19T07:05:02.738Z,18.43
2023-05-19T07:06:03.015Z,18.58
2023-05-19T07:07:02.758Z,18.71
2023-05-19T07:08:02.760Z,18.85
2023-05-19T07:09:02.757Z,18.93
2023-05-19T07:10:02.801Z,19
2023-05-19T07:11:02.799Z,19.06
2023-05-19T07:12:02.855Z,19.05
2023-05-19T07:13:02.851Z,19.12
2023-05-19T07:14:02.880Z,19.17
2023-05-19T07:15:02.898Z,19.26
2023-05-19T07:16:02.949Z,19.33
2023-05-19T07:17:02.958Z,19.4
2023-05-19T07:18:03.035Z,19.51
2023-05-19T07:19:03.073Z,19.66
2023-05-19T07:20:03.030Z,19.74
2023-05-19T07:21:03.065Z,19.83
2023-05-19T07:22:03.076Z,19.89
2023-05-19T07:23:02.101Z,20.02
2023-05-19T07:24:02.145Z,20.09
2023-05-19T07:25:02.152Z,20.19
2023-05-19T07:26:02.162Z,20.25
2023-05-19T07:27:02.213Z,20.25
2023-05-19T07:28:02.210Z,20.36
2023-05-19T07:29:02.236Z,20.39
2023-05-19T07:30:02.242Z,20.43
2023-05-19T07:31:02.268Z,20.42
2023-05-19T07:32:02.337Z,20.42
2023-05-19T07:33:02.289Z,20.52
2023-05-19T07:34:02.276Z,20.57
2023-05-19T07:35:02.308Z,20.65
2023-05-19T07:36:02.292Z,20.69
2023-05-19T07:37:02.308Z,20.75
2023-05-19T07:38:02.309Z,20.78
2023-05-19T07:39:02.381Z,20.8
2023-05-19T07:40:02.438Z,20.78
2023-05-19T07:41:02.416Z,20.86
2023-05-19T07:42:02.442Z,20.95
2023-05-19T07:43:02.460Z,21.11
2023-05-19T07:44:02.494Z,21.18
2023-05-19T07:45:02.537Z,21.23
2023-05-19T07:46:02.592Z,21.36
2023-05-19T07:47:02.584Z,21.39
2023-05-19T07:48:02.632Z,21.34
2023-05-19T07:49:02.627Z,21.25
2023-05-19T07:50:02.662Z,21.17
2023-05-19T07:51:02.683Z,21.1
2023-05-19T07:52:02.694Z,20.98
2023-05-19T07:53:02.713Z,20.84
2023-05-19T07:54:02.743Z,20.82
2023-05-19T07:55:02.751Z,20.72
2023-05-19T07:56:02.771Z,20.65
2023-05-19T07:57:02.791Z,20.61
2023-05-19T07:58:02.813Z,20.51
2023-05-19T07:59:02.825Z,20.43
2023-05-19T08:00:02.845Z,20.31
2023-05-19T08:01:02.856Z,20.21
2023-05-19T08:02:02.917Z,20.14
2023-05-19T08:03:03.045Z,20.07
2023-05-19T08:04:02.966Z,20.09
2023-05-19T08:05:02.922Z,20
2023-05-19T08:06:02.905Z,19.95
2023-05-19T08:07:02.920Z,19.93
2023-05-19T08:08:02.965Z,19.96
2023-05-19T08:09:02.977Z,20.16
2023-05-19T08:10:03.015Z,20.28
2023-05-19T08:11:03.037Z,20.28
2023-05-19T08:12:03.058Z,20.39
2023-05-19T08:13:03.081Z,20.49
2023-05-19T08:14:02.112Z,20.56
2023-05-19T08:15:02.201Z,20.6
2023-05-19T08:16:02.267Z,20.63
2023-05-19T08:17:02.185Z,20.64
2023-05-19T08:18:02.338Z,20.62
2023-05-19T08:19:02.252Z,20.59
2023-05-19T08:20:02.262Z,20.55
2023-05-19T08:21:02.295Z,20.5
2023-05-19T08:22:02.300Z,20.51
2023-05-19T08:23:02.327Z,20.46
2023-05-19T08:24:02.362Z,20.45
2023-05-19T08:25:02.392Z,20.47
2023-05-19T08:26:02.386Z,20.45
2023-05-19T08:27:02.401Z,20.43
2023-05-19T08:28:02.413Z,20.42
2023-05-19T08:29:02.451Z,20.4
2023-05-19T08:30:02.435Z,20.38
2023-05-19T08:31:02.463Z,20.39
2023-05-19T08:32:02.464Z,20.41
2023-05-19T08:33:02.560Z,20.39
2023-05-19T08:34:02.500Z,20.42
2023-05-19T08:35:02.527Z,20.38
2023-05-19T08:36:02.537Z,20.33
2023-05-19T08:37:02.564Z,20.28
2023-05-19T08:38:02.609Z,20.26
2023-05-19T08:39:02.635Z,20.28
2023-05-19T08:40:02.629Z,20.21
2023-05-19T08:41:02.662Z,20.23
2023-05-19T08:42:02.708Z,20.14
2023-05-19T08:43:02.742Z,20.17
2023-05-19T08:44:02.741Z,20.31
2023-05-19T08:45:02.761Z,20.34
2023-05-19T08:46:02.772Z,20.31
2023-05-19T08:47:02.997Z,20.24
2023-05-19T08:48:02.853Z,20.17
2023-05-19T08:49:02.834Z,20.15
2023-05-19T08:50:02.883Z,20.15
2023-05-19T08:51:02.884Z,20.13
2023-05-19T08:52:02.912Z,20.12
2023-05-19T08:53:02.921Z,20.03
2023-05-19T08:54:02.935Z,20.02
2023-05-19T08:55:02.946Z,19.97
2023-05-19T08:56:02.942Z,19.83
2023-05-19T08:57:02.947Z,19.78
2023-05-19T08:58:02.966Z,19.66
2023-05-19T08:59:02.985Z,19.61
2023-05-19T09:00:03.034Z,19.56
2023-05-19T09:01:03.065Z,19.48
2023-05-19T09:02:03.064Z,19.48
2023-05-19T09:04:02.259Z,19.45
2023-05-19T09:05:02.210Z,19.45
2023-05-19T09:06:02.328Z,19.43
2023-05-19T09:07:02.196Z,19.5
2023-05-19T09:08:02.220Z,19.52
2023-05-19T09:09:02.236Z,19.52
2023-05-19T09:10:02.266Z,19.51
2023-05-19T09:11:02.324Z,19.49
2023-05-19T09:12:02.321Z,19.5
2023-05-19T09:13:02.347Z,19.57
2023-05-19T09:14:02.371Z,19.55
2023-05-19T09:15:02.401Z,19.48
2023-05-19T09:16:02.478Z,19.49
2023-05-19T09:17:02.511Z,19.5
2023-05-19T09:18:02.500Z,19.61
2023-05-19T09:19:02.499Z,19.64
2023-05-19T09:20:02.491Z,19.64
2023-05-19T09:21:02.712Z,19.72
2023-05-19T09:22:02.519Z,19.83
2023-05-19T09:23:02.520Z,19.91
2023-05-19T09:24:02.546Z,19.91
2023-05-19T09:25:02.555Z,19.94
2023-05-19T09:26:02.564Z,20.02
2023-05-19T09:27:02.556Z,19.99
2023-05-19T09:28:02.591Z,19.97
2023-05-19T09:29:02.607Z,19.97
2023-05-19T09:30:02.643Z,20.05
2023-05-19T09:31:02.675Z,20.1
2023-05-19T09:32:02.705Z,20.12
2023-05-19T09:33:02.780Z,20.14
2023-05-19T09:34:02.736Z,20.22
2023-05-19T09:35:02.765Z,20.22
2023-05-19T09:36:02.788Z,20.26
2023-05-19T09:37:02.815Z,20.28
2023-05-19T09:38:02.838Z,20.35
2023-05-19T09:39:02.858Z,20.45
2023-05-19T09:40:02.879Z,20.46
2023-05-19T09:41:02.915Z,20.45
2023-05-19T09:42:02.957Z,20.45
2023-05-19T09:43:02.956Z,20.41
2023-05-19T09:44:02.970Z,20.49
2023-05-19T09:45:02.992Z,20.49
2023-05-19T09:46:03.025Z,20.5
2023-05-19T09:47:03.025Z,20.52
2023-05-19T09:48:03.127Z,20.56
2023-05-19T09:49:03.058Z,20.61
2023-05-19T09:50:03.081Z,20.61
2023-05-19T09:51:02.095Z,20.64
2023-05-19T09:52:02.139Z,20.66
2023-05-19T09:53:02.119Z,20.71
2023-05-19T09:54:02.113Z,20.69
2023-05-19T09:55:02.124Z,20.69
2023-05-19T09:56:02.157Z,20.66
2023-05-19T09:57:02.192Z,20.66
2023-05-19T09:58:02.202Z,20.66
2023-05-19T09:59:02.269Z,20.72
2023-05-19T10:00:02.260Z,20.76
2023-05-19T10:01:02.375Z,20.73
2023-05-19T10:02:02.563Z,20.7
2023-05-19T10:03:02.350Z,20.7
2023-05-19T10:04:03.805Z,20.67
2023-05-19T10:05:02.434Z,20.67
2023-05-19T10:06:02.407Z,20.57
2023-05-19T10:07:02.433Z,20.56
2023-05-19T10:08:02.449Z,20.48
2023-05-19T10:09:02.458Z,20.46
2023-05-19T10:10:02.482Z,20.43
2023-05-19T10:11:02.505Z,20.4
2023-05-19T10:12:02.517Z,20.38
2023-05-19T10:13:02.543Z,20.3
2023-05-19T10:14:02.550Z,20.28
2023-05-19T10:15:02.574Z,20.32
2023-05-19T10:16:02.932Z,20.38
2023-05-19T10:17:02.704Z,20.44
2023-05-19T10:18:02.683Z,20.48
2023-05-19T10:19:02.692Z,20.5
2023-05-19T10:20:02.617Z,20.52
2023-05-19T10:21:02.638Z,20.52
2023-05-19T10:22:02.652Z,20.55
2023-05-19T10:23:02.679Z,20.55
2023-05-19T10:24:02.717Z,20.55
2023-05-19T10:25:02.752Z,20.55
2023-05-19T10:26:02.767Z,20.55
2023-05-19T10:27:02.777Z,20.68
2023-05-19T10:28:02.810Z,20.7
2023-05-19T10:29:02.821Z,20.74
2023-05-19T10:30:02.844Z,20.8
2023-05-19T10:31:02.891Z,20.9
2023-05-19T10:32:02.964Z,20.92
2023-05-19T10:33:02.949Z,21.02
2023-05-19T10:34:02.934Z,21.06
2023-05-19T10:35:02.944Z,21.26
2023-05-19T10:36:02.960Z,21.28
2023-05-19T10:37:02.976Z,21.34
2023-05-19T10:38:02.996Z,21.38
2023-05-19T10:39:02.994Z,21.57
2023-05-19T10:40:03.008Z,21.59
2023-05-19T10:41:03.015Z,21.67
2023-05-19T10:42:03.026Z,21.81
2023-05-19T10:43:03.031Z,21.86
2023-05-19T10:44:03.062Z,21.86
2023-05-19T10:45:03.086Z,21.96
2023-05-19T10:46:02.109Z,21.96
2023-05-19T10:47:02.246Z,22
2023-05-19T10:48:02.260Z,22.07
2023-05-19T10:49:02.185Z,22.05
2023-05-19T10:50:02.209Z,22.1
2023-05-19T10:51:02.243Z,22.14
2023-05-19T10:52:02.268Z,22.18
2023-05-19T10:53:02.293Z,22.21
2023-05-19T10:54:02.307Z,22.32
2023-05-19T10:55:02.330Z,22.32
2023-05-19T10:56:02.359Z,22.3
2023-05-19T10:57:02.373Z,22.3
2023-05-19T10:58:02.417Z,22.22
2023-05-19T10:59:02.421Z,22.2
2023-05-19T11:00:02.452Z,22.14
2023-05-19T11:01:02.463Z,22.1
2023-05-19T11:02:02.527Z,22.04
2023-05-19T11:03:02.562Z,22.02
2023-05-19T11:04:02.524Z,21.96
2023-05-19T11:05:02.517Z,21.92
2023-05-19T11:06:02.524Z,21.82
2023-05-19T11:07:02.545Z,21.82
2023-05-19T11:08:02.606Z,21.8
2023-05-19T11:09:02.575Z,21.76
2023-05-19T11:10:02.575Z,21.74
2023-05-19T11:11:02.592Z,21.74
2023-05-19T11:12:02.645Z,21.66
2023-05-19T11:13:02.650Z,21.61
2023-05-19T11:14:02.677Z,21.61
2023-05-19T11:15:02.698Z,21.58
2023-05-19T11:16:02.724Z,21.51
2023-05-19T11:17:02.897Z,21.49
2023-05-19T11:18:02.809Z,21.46
2023-05-19T11:19:02.874Z,21.46
2023-05-19T11:20:02.828Z,21.33
2023-05-19T11:21:02.906Z,21.38
2023-05-19T11:22:02.864Z,21.36
2023-05-19T11:23:02.898Z,21.39
2023-05-19T11:24:02.967Z,21.51
2023-05-19T11:25:02.926Z,21.67
2023-05-19T11:26:02.942Z,21.87
2023-05-19T11:27:02.973Z,22.1
2023-05-19T11:28:03.001Z,22.01
2023-05-19T11:29:03.011Z,21.94
2023-05-19T11:30:03.038Z,21.96
2023-05-19T11:31:03.044Z,21.9
2023-05-19T11:32:03.085Z,21.79
2023-05-19T11:33:03.194Z,21.72
2023-05-19T11:34:03.076Z,21.65
2023-05-19T11:35:03.092Z,21.59
2023-05-19T11:36:03.132Z,21.53
2023-05-19T11:37:03.102Z,21.53
2023-05-19T11:38:03.105Z,21.56
2023-05-19T11:39:03.130Z,21.57
2023-05-19T11:40:03.161Z,21.61
2023-05-19T11:41:03.189Z,21.63
2023-05-19T11:42:03.203Z,21.67
2023-05-19T11:43:03.231Z,21.74
2023-05-19T11:44:03.246Z,21.71
2023-05-19T11:45:03.270Z,21.71
2023-05-19T11:46:03.412Z,21.67
2023-05-19T11:47:03.350Z,21.58
2023-05-19T11:48:03.640Z,21.55
2023-05-19T11:49:03.366Z,21.51
2023-05-19T11:50:03.386Z,21.44
2023-05-19T11:51:03.397Z,21.42
2023-05-19T11:52:03.425Z,21.36
2023-05-19T11:53:03.443Z,21.36
2023-05-19T11:54:03.481Z,21.36
2023-05-19T11:55:03.478Z,21.28
2023-05-19T11:56:03.481Z,21.26
2023-05-19T11:57:03.515Z,21.25
2023-05-19T11:58:05.083Z,21.21
2023-05-19T11:59:03.521Z,21.21
2023-05-19T12:00:03.528Z,21.18
2023-05-19T12:01:03.524Z,21.11
2023-05-19T12:02:03.558Z,21.11
2023-05-19T12:03:03.619Z,21.12
2023-05-19T12:04:03.626Z,21.05
2023-05-19T12:05:03.709Z,21.03
2023-05-19T12:06:03.723Z,21.03
2023-05-19T12:07:03.687Z,21.03
2023-05-19T12:08:03.708Z,21
2023-05-19T12:09:03.729Z,20.97
2023-05-19T12:10:03.771Z,20.85
2023-05-19T12:11:03.791Z,20.85
2023-05-19T12:12:03.828Z,20.9
2023-05-19T12:13:03.829Z,20.9
2023-05-19T12:14:03.848Z,20.9
2023-05-19T12:15:03.871Z,20.9
2023-05-19T12:16:03.931Z,20.9
2023-05-19T12:17:03.898Z,20.9
2023-05-19T12:18:04.048Z,20.82
2023-05-19T12:19:03.961Z,20.82
2023-05-19T12:20:03.946Z,20.82
2023-05-19T12:21:03.957Z,20.72
2023-05-19T12:22:04.120Z,20.72
2023-05-19T12:23:04.209Z,20.74
2023-05-19T12:24:04.017Z,20.74
2023-05-19T12:25:04.023Z,20.67
2023-05-19T12:26:04.034Z,20.65
2023-05-19T12:27:04.038Z,20.67
2023-05-19T12:28:04.119Z,20.67
2023-05-19T12:29:03.091Z,20.6
2023-05-19T12:30:03.118Z,20.62
2023-05-19T12:31:03.152Z,20.62
2023-05-19T12:32:03.222Z,20.62
2023-05-19T12:33:03.496Z,20.62
2023-05-19T12:34:03.232Z,20.65
2023-05-19T12:35:03.251Z,20.65
2023-05-19T12:36:03.293Z,20.65
2023-05-19T12:37:03.301Z,20.57
2023-05-19T12:38:03.337Z,20.63
2023-05-19T12:39:03.373Z,20.63
2023-05-19T12:40:03.401Z,20.63
2023-05-19T12:41:03.419Z,20.65
2023-05-19T12:42:03.445Z,20.62
2023-05-19T12:43:03.484Z,20.62
2023-05-19T12:44:03.490Z,20.6
2023-05-19T12:45:03.631Z,20.55
2023-05-19T12:46:03.535Z,20.55
2023-05-19T12:47:03.544Z,20.49
2023-05-19T12:48:03.628Z,20.47
2023-05-19T12:49:03.576Z,20.47
2023-05-19T12:50:03.595Z,20.43
2023-05-19T12:51:03.610Z,20.41
2023-05-19T12:52:07.223Z,20.39
2023-05-19T12:53:03.637Z,20.39
2023-05-19T12:54:03.668Z,20.39
2023-05-19T12:55:03.757Z,20.41
2023-05-19T12:56:03.661Z,20.34
2023-05-19T12:57:03.663Z,20.36
2023-05-19T12:58:03.721Z,20.36